Index of /wp-hr-content/uploads/wpfc-backup/2021/09/

NameLast ModifiedSize
UpParent Directory
[IMG]cropped-hr-logo-150x150.png2021-09-30 11:21 21k
[IMG]cropped-hr-logo-180x180.png2021-09-30 11:21 28k
[IMG]cropped-hr-logo-192x192.png2021-09-30 11:21 22k
[IMG]cropped-hr-logo-270x270.png2021-09-30 11:21 54k
[IMG]cropped-hr-logo-300x300.png2021-09-30 11:21 66k
[IMG]cropped-hr-logo-32x32.png2021-09-30 11:21 2k
[IMG]cropped-hr-logo-400x250.png2021-09-30 11:21 63k
[IMG]cropped-hr-logo-400x284.png2021-09-30 11:21 69k
[IMG]cropped-hr-logo-400x512.png2021-09-30 11:21 49k
[IMG]cropped-hr-logo-480x480.png2021-09-30 11:21 96k
[IMG]cropped-hr-logo-510x382.png2021-09-30 11:21 133k
[IMG]cropped-hr-logo.png2021-09-30 11:21 59k
[IMG]governors_complex_home-1-scaled-1-150x150.jpg2021-09-30 13:13 5k
[IMG]governors_complex_home-1-scaled-1-300x152.jpg2021-09-30 13:13 10k
[IMG]governors_complex_home-1-scaled-1-400x284.jpg2021-09-30 13:13 20k
[IMG]governors_complex_home-1-scaled-1-768x389.jpg2021-09-30 13:13 47k
[IMG]governors_complex_home-1-scaled-1.jpg2021-09-30 13:13 208k
[IMG]HR-01-1-1024x946.jpg2021-09-30 13:13 79k
[IMG]HR-01-1-1080x675.jpg2021-09-30 13:13 60k
[IMG]HR-01-1-1080x998.jpg2021-09-30 13:13 85k
[IMG]HR-01-1-1280x1183.jpg2021-09-30 13:14 106k
[IMG]HR-01-1-150x150.jpg2021-09-30 13:13 6k
[IMG]HR-01-1-1536x1420.jpg2021-09-30 13:14 136k
[IMG]HR-01-1-2048x1893.jpg2021-09-30 13:14 205k
[IMG]HR-01-1-2880x1800.jpg2021-09-30 13:13 237k
[IMG]HR-01-1-300x277.jpg2021-09-30 13:13 15k
[IMG]HR-01-1-400x250.jpg2021-09-30 13:13 16k
[IMG]HR-01-1-400x284.jpg2021-09-30 13:14 18k
[IMG]HR-01-1-400x516.jpg2021-09-30 13:13 25k
[IMG]HR-01-1-480x444.jpg2021-09-30 13:14 28k
[IMG]HR-01-1-510x382.jpg2021-09-30 13:14 25k
[IMG]HR-01-1-768x710.jpg2021-09-30 13:13 52k
[IMG]HR-01-1-980x906.jpg2021-09-30 13:14 74k
[IMG]HR-01-1-scaled-1-1024x946.jpg2021-09-30 13:12 78k
[IMG]HR-01-1-scaled-1-1080x675.jpg2021-09-30 13:12 60k
[IMG]HR-01-1-scaled-1-1080x998.jpg2021-09-30 13:12 84k
[IMG]HR-01-1-scaled-1-150x150.jpg2021-09-30 13:12 6k
[IMG]HR-01-1-scaled-1-2560x1800.jpg2021-09-30 13:12 223k
[IMG]HR-01-1-scaled-1-300x277.jpg2021-09-30 13:12 15k
[IMG]HR-01-1-scaled-1-400x284.jpg2021-09-30 13:12 18k
[IMG]HR-01-1-scaled-1-400x516.jpg2021-09-30 13:12 25k
[IMG]HR-01-1-scaled-1-980x906.jpg2021-09-30 13:12 73k
[IMG]HR-01-1-scaled-1.jpg2021-09-30 13:12 151k
[IMG]HR-01-1-scaled.jpg2021-09-30 13:13 281k
[IMG]hr-logo-150x150.png2021-09-30 11:22 17k
[IMG]hr-logo.png2021-09-30 11:22 23k
Proudly Served by LiteSpeed Web Server at hr.doa.guam.gov Port 443